createdAt,value
2017-10-15T00:03:41.816Z,36.87
2017-10-15T00:08:44.936Z,31.37
2017-10-15T00:13:47.805Z,29.00
2017-10-15T00:18:50.372Z,31.87
2017-10-15T00:23:52.958Z,28.97
2017-10-15T00:28:56.349Z,32.40
2017-10-15T00:33:59.069Z,28.13
2017-10-15T00:39:01.821Z,23.00
2017-10-15T00:44:04.615Z,24.90
2017-10-15T00:49:07.529Z,26.73
2017-10-15T00:54:10.616Z,31.23
2017-10-15T00:59:13.652Z,38.90
2017-10-15T01:04:18.260Z,34.03
2017-10-15T01:09:21.219Z,27.37
2017-10-15T01:14:27.639Z,30.80
2017-10-15T01:19:30.652Z,23.73
2017-10-15T01:24:33.598Z,27.90
2017-10-15T01:29:36.302Z,30.00
2017-10-15T01:34:43.030Z,24.97
2017-10-15T01:39:46.071Z,23.10
2017-10-15T01:44:48.676Z,29.40
2017-10-15T01:49:51.368Z,24.43
2017-10-15T01:54:53.962Z,24.07
2017-10-15T01:59:57.222Z,23.13
2017-10-15T02:05:00.406Z,36.77
2017-10-15T02:10:04.189Z,29.93
2017-10-15T02:15:07.386Z,25.37
2017-10-15T02:20:11.206Z,25.23
2017-10-15T02:25:14.081Z,21.10
2017-10-15T02:30:17.059Z,24.27
2017-10-15T02:35:19.943Z,26.50
2017-10-15T02:40:23.148Z,32.83
2017-10-15T02:45:26.022Z,24.97
2017-10-15T02:50:31.180Z,28.07
2017-10-15T02:55:35.140Z,24.60
2017-10-15T03:00:37.882Z,25.97
2017-10-15T03:05:40.872Z,16.80
2017-10-15T03:10:43.372Z,24.80
2017-10-15T03:15:46.265Z,17.10
2017-10-15T03:20:49.113Z,21.30
2017-10-15T03:25:51.857Z,19.53
2017-10-15T03:30:55.492Z,26.90
2017-10-15T03:35:59.651Z,31.70
2017-10-15T03:41:04.857Z,27.00
2017-10-15T03:46:12.817Z,37.10
2017-10-15T03:51:20.675Z,22.30
2017-10-15T03:56:25.232Z,28.57
2017-10-15T04:01:30.930Z,32.53
2017-10-15T04:06:34.129Z,26.07
2017-10-15T04:11:38.120Z,24.50
2017-10-15T04:16:41.883Z,21.53
2017-10-15T04:21:43.984Z,20.63
2017-10-15T04:26:48.034Z,24.73
2017-10-15T04:31:49.983Z,20.00
2017-10-15T04:36:55.778Z,22.93
2017-10-15T04:42:02.980Z,18.53
2017-10-15T04:47:09.215Z,21.20
2017-10-15T04:52:13.957Z,24.37
2017-10-15T04:57:16.674Z,27.63
2017-10-15T05:02:19.460Z,24.80
2017-10-15T05:07:23.087Z,30.83
2017-10-15T05:12:25.037Z,23.97
2017-10-15T05:17:33.919Z,28.03
2017-10-15T05:22:36.608Z,21.50
2017-10-15T05:27:38.531Z,17.40
2017-10-15T05:32:41.221Z,22.43
2017-10-15T05:37:43.139Z,20.90
2017-10-15T05:42:45.052Z,22.93
2017-10-15T05:47:47.020Z,19.40
2017-10-15T05:52:49.061Z,23.25
2017-10-15T05:57:51.016Z,19.00
2017-10-15T06:02:56.257Z,22.93
2017-10-15T06:07:59.226Z,38.33
2017-10-15T06:13:01.149Z,23.67
2017-10-15T06:18:04.527Z,31.80
2017-10-15T06:23:07.496Z,23.60
2017-10-15T06:28:09.516Z,25.80
2017-10-15T06:33:11.529Z,28.00
2017-10-15T06:38:15.098Z,26.30
2017-10-15T06:43:18.183Z,35.67
2017-10-15T06:48:22.178Z,27.57
2017-10-15T06:53:26.722Z,27.83
2017-10-15T06:58:29.659Z,21.17
2017-10-15T07:03:31.999Z,23.60
2017-10-15T07:08:35.139Z,19.77
2017-10-15T07:13:38.150Z,25.93
2017-10-15T07:18:43.224Z,22.47
2017-10-15T07:23:46.472Z,20.67
2017-10-15T07:28:49.340Z,26.60
2017-10-15T07:33:52.039Z,20.83
2017-10-15T07:38:59.584Z,24.30
2017-10-15T07:44:02.423Z,18.57
2017-10-15T07:49:06.624Z,32.77
2017-10-15T07:54:09.406Z,17.07
2017-10-15T07:59:15.577Z,18.50
2017-10-15T08:04:21.424Z,18.10
2017-10-15T08:09:27.495Z,21.87
2017-10-15T08:14:35.377Z,17.40
2017-10-15T08:19:41.066Z,19.20
2017-10-15T08:24:47.736Z,18.97
2017-10-15T08:29:50.760Z,18.13
2017-10-15T08:34:53.522Z,11.20
2017-10-15T08:39:59.001Z,11.00
2017-10-15T08:45:02.132Z,12.50
2017-10-15T08:50:06.287Z,11.27
2017-10-15T08:55:09.021Z,15.27
2017-10-15T09:00:12.172Z,7.63
2017-10-15T09:05:16.796Z,12.13
2017-10-15T09:10:19.200Z,10.95
2017-10-15T09:15:21.182Z,7.60
2017-10-15T09:20:23.912Z,6.77
2017-10-15T09:25:26.216Z,6.67
2017-10-15T09:30:28.208Z,6.60
2017-10-15T09:35:30.921Z,5.73
2017-10-15T09:40:32.844Z,7.70
2017-10-15T09:45:34.939Z,15.03
2017-10-15T09:50:37.774Z,6.30
2017-10-15T09:55:40.331Z,4.67
2017-10-15T10:00:48.454Z,4.33
2017-10-15T10:05:50.397Z,4.53
2017-10-15T10:10:52.291Z,9.67
2017-10-15T10:15:55.031Z,4.80
2017-10-15T10:20:58.094Z,7.10
2017-10-15T10:26:02.158Z,5.80
2017-10-15T10:31:04.116Z,15.27
2017-10-15T10:36:06.552Z,5.30
2017-10-15T10:41:08.488Z,11.60
2017-10-15T10:46:10.413Z,8.00
2017-10-15T10:51:12.386Z,9.13
2017-10-15T10:56:14.459Z,5.23
2017-10-15T11:01:16.403Z,5.67
2017-10-15T11:06:18.347Z,5.60
2017-10-15T11:11:20.371Z,4.70
2017-10-15T11:16:22.293Z,4.50
2017-10-15T11:21:28.200Z,6.43
2017-10-15T11:26:35.833Z,4.63
2017-10-15T11:31:41.918Z,7.33
2017-10-15T11:36:43.877Z,8.93
2017-10-15T11:41:45.811Z,10.97
2017-10-15T11:46:48.176Z,3.93
2017-10-15T11:51:50.091Z,6.93
2017-10-15T11:56:57.223Z,4.27
2017-10-15T12:01:59.536Z,3.80
2017-10-15T12:07:01.464Z,4.73
2017-10-15T12:12:06.361Z,5.30
2017-10-15T12:17:10.293Z,4.23
2017-10-15T12:22:13.256Z,4.20
2017-10-15T12:27:17.296Z,5.50
2017-10-15T12:32:19.294Z,2.93
2017-10-15T12:37:22.089Z,6.03
2017-10-15T12:42:24.028Z,5.63
2017-10-15T12:47:29.572Z,7.00
2017-10-15T12:52:31.500Z,3.05
2017-10-15T12:57:33.460Z,6.73
2017-10-15T13:02:35.397Z,20.47
2017-10-15T13:07:37.327Z,4.20
2017-10-15T13:12:43.231Z,5.57
2017-10-15T13:17:45.215Z,3.83
2017-10-15T13:22:47.432Z,5.83
2017-10-15T13:27:49.431Z,5.70
2017-10-15T13:32:51.404Z,5.20
2017-10-15T13:37:53.796Z,12.73
2017-10-15T13:42:55.728Z,38.17
2017-10-15T13:47:57.694Z,6.20
2017-10-15T13:53:01.362Z,4.93
2017-10-15T13:58:03.367Z,10.40
2017-10-15T14:03:05.994Z,5.00
2017-10-15T14:08:08.074Z,8.10
2017-10-15T14:13:10.749Z,10.87
2017-10-15T14:18:12.698Z,8.33
2017-10-15T14:23:16.798Z,5.27
2017-10-15T14:28:18.755Z,12.43
2017-10-15T14:33:21.952Z,9.23
2017-10-15T14:38:24.822Z,6.20
2017-10-15T14:43:30.696Z,6.20
2017-10-15T14:48:32.662Z,14.40
2017-10-15T14:53:35.509Z,12.47
2017-10-15T14:58:38.522Z,8.10
2017-10-15T15:03:40.507Z,13.63
2017-10-15T15:08:43.370Z,4.77
2017-10-15T15:13:45.500Z,5.57
2017-10-15T15:18:48.388Z,6.03
2017-10-15T15:23:50.302Z,12.37
2017-10-15T15:28:52.335Z,7.53
2017-10-15T15:33:54.247Z,12.67
2017-10-15T15:38:56.215Z,6.00
2017-10-15T15:43:59.138Z,7.83
2017-10-15T15:49:01.946Z,11.77
2017-10-15T15:54:04.771Z,3.10
2017-10-15T15:59:07.544Z,11.80
2017-10-15T16:04:10.347Z,8.70
2017-10-15T16:09:13.191Z,15.80
2017-10-15T16:14:16.129Z,10.70
2017-10-15T16:19:18.899Z,4.60
2017-10-15T16:24:21.680Z,8.87
2017-10-15T16:29:24.631Z,6.20
2017-10-15T16:34:27.449Z,8.53
2017-10-15T16:39:31.083Z,10.40
2017-10-15T16:44:34.639Z,8.03
2017-10-15T16:49:39.318Z,10.90
2017-10-15T16:54:47.367Z,12.37
2017-10-15T16:59:52.385Z,13.43
2017-10-15T17:04:55.101Z,17.00
2017-10-15T17:09:57.823Z,13.33
2017-10-15T17:15:00.544Z,8.43
2017-10-15T17:20:03.685Z,18.83
2017-10-15T17:25:05.758Z,23.77
2017-10-15T17:30:11.426Z,13.93
2017-10-15T17:35:13.596Z,16.73
2017-10-15T17:40:15.516Z,17.83
2017-10-15T17:45:17.415Z,12.23
2017-10-15T17:50:22.962Z,10.97
2017-10-15T17:55:28.942Z,12.23
2017-10-15T18:00:33.194Z,13.57
2017-10-15T18:05:36.928Z,12.55
2017-10-15T18:10:44.177Z,13.13
2017-10-15T18:15:49.123Z,14.70
2017-10-15T18:20:51.407Z,13.80
2017-10-15T18:25:53.391Z,13.63
2017-10-15T18:30:57.206Z,11.90
2017-10-15T18:35:59.374Z,13.80
2017-10-15T18:41:02.694Z,9.97
2017-10-15T18:46:05.846Z,13.60
2017-10-15T18:51:09.119Z,10.13
2017-10-15T18:56:12.500Z,16.57
2017-10-15T19:01:15.549Z,11.90
2017-10-15T19:06:18.722Z,8.27
2017-10-15T19:11:22.924Z,10.90
2017-10-15T19:16:29.461Z,24.97
2017-10-15T19:21:32.712Z,14.07
2017-10-15T19:26:35.750Z,9.73
2017-10-15T19:31:39.984Z,21.03
2017-10-15T19:36:43.688Z,14.90
2017-10-15T19:41:46.850Z,11.20
2017-10-15T19:46:49.882Z,18.00
2017-10-15T19:51:53.884Z,17.73
2017-10-15T19:56:57.609Z,10.27
2017-10-15T20:02:02.865Z,22.93
2017-10-15T20:07:06.192Z,10.07
2017-10-15T20:12:09.600Z,10.40
2017-10-15T20:17:12.471Z,15.43
2017-10-15T20:22:15.401Z,10.47
2017-10-15T20:27:19.180Z,7.90
2017-10-15T20:32:22.224Z,13.20
2017-10-15T20:37:24.303Z,20.97
2017-10-15T20:42:26.249Z,21.07
2017-10-15T20:47:28.249Z,15.70
2017-10-15T20:52:30.281Z,14.07
2017-10-15T20:57:32.937Z,15.37
2017-10-15T21:02:35.880Z,10.50
2017-10-15T21:07:38.678Z,24.03
2017-10-15T21:12:41.567Z,15.87
2017-10-15T21:17:44.427Z,13.80
2017-10-15T21:22:47.084Z,21.33
2017-10-15T21:27:49.052Z,20.37
2017-10-15T21:32:51.811Z,14.37
2017-10-15T21:37:53.732Z,19.10
2017-10-15T21:42:55.724Z,17.23
2017-10-15T21:47:57.829Z,11.47
2017-10-15T21:52:59.888Z,17.67
2017-10-15T21:58:02.846Z,22.30
2017-10-15T22:03:04.792Z,14.20
2017-10-15T22:08:06.956Z,20.20
2017-10-15T22:13:08.928Z,15.40
2017-10-15T22:18:17.657Z,17.47
2017-10-15T22:23:19.603Z,17.57
2017-10-15T22:28:21.534Z,17.03
2017-10-15T22:33:24.204Z,20.90
2017-10-15T22:38:27.171Z,11.80
2017-10-15T22:43:30.717Z,20.93
2017-10-15T22:48:33.486Z,20.53
2017-10-15T22:53:36.203Z,13.50
2017-10-15T22:58:39.062Z,16.20
2017-10-15T23:03:42.058Z,14.47
2017-10-15T23:08:45.283Z,12.77
2017-10-15T23:13:48.330Z,17.63
2017-10-15T23:18:51.880Z,16.10
2017-10-15T23:23:54.732Z,18.00
2017-10-15T23:28:58.229Z,23.33
2017-10-15T23:34:00.992Z,14.53
2017-10-15T23:39:03.914Z,18.50
2017-10-15T23:44:07.640Z,17.97
2017-10-15T23:49:09.671Z,22.77
2017-10-15T23:54:11.702Z,22.00
2017-10-15T23:59:14.465Z,13.70
